Time;durP1;ratioP1;P1;durP2;ratioP2;P2;SDS_P1;SDS_P2;PMS_P1;PMS_P2;Temp;Humidity;BMP_temperature;BMP_pressure;BME280_temperature;BME280_humidity;BME280_pressure;Samples;Min_cycle;Max_cycle;Signal;HPM_P1;HPM_P2
2022/05/19 00:01:38;;;;;;;2.30;1.30;;;25.00;86.50;;;;;;6215193;23;19993;-50
2022/05/19 00:04:04;;;;;;;1.52;1.30;;;25.40;86.80;;;;;;6214968;23;20016;-50
2022/05/19 00:06:30;;;;;;;3.80;1.25;;;;;;;;;;6215629;23;20020;-53
2022/05/19 00:08:55;;;;;;;2.25;1.27;;;25.30;67.10;;;;;;6215470;23;20023;-52
2022/05/19 00:11:29;;;;;;;2.33;1.65;;;25.10;86.70;;;;;;6215547;23;20408;-50
2022/05/19 00:13:55;;;;;;;2.17;1.08;;;25.20;86.80;;;;;;6215433;23;20040;-50
2022/05/19 00:16:20;;;;;;;2.15;1.20;;;25.00;86.70;;;;;;6215054;23;19997;-51
2022/05/19 00:18:46;;;;;;;2.10;1.42;;;25.10;87.00;;;;;;6215062;23;20009;-50
2022/05/19 00:21:12;;;;;;;2.70;2.17;;;25.10;65.00;;;;;;6215365;23;19996;-49
2022/05/19 00:23:38;;;;;;;2.00;1.50;;;;;;;;;;6214970;23;20001;-50
2022/05/19 00:26:03;;;;;;;2.03;1.20;;;24.80;55.20;;;;;;6215350;23;20006;-51
2022/05/19 00:28:29;;;;;;;2.42;1.50;;;25.20;87.50;;;;;;6215410;23;20075;-50
2022/05/19 00:30:54;;;;;;;3.85;1.60;;;24.90;87.30;;;;;;6214929;23;20028;-50
2022/05/19 00:33:20;;;;;;;2.63;1.60;;;25.30;87.40;;;;;;6214956;23;19996;-50
2022/05/19 00:35:46;;;;;;;3.00;1.40;;;25.30;87.00;;;;;;6188300;23;20068;-58
2022/05/19 00:38:12;;;;;;;3.47;1.40;;;;;;;;;;6215216;23;20047;-58
2022/05/19 00:40:38;;;;;;;1.90;1.50;;;25.10;54.00;;;;;;6224977;23;20047;-58
2022/05/19 00:43:04;;;;;;;2.03;1.60;;;24.90;55.00;;;;;;6215101;23;19997;-58
2022/05/19 00:45:42;;;;;;;2.33;1.40;;;24.80;86.90;;;;;;6215226;23;20345;-58
2022/05/19 00:48:15;;;;;;;2.30;1.65;;;24.70;87.00;;;;;;6224909;23;20076;-58
2022/05/19 00:50:49;;;;;;;3.75;1.60;;;25.10;87.40;;;;;;6215174;23;20000;-58
2022/05/19 00:53:41;;;;;;;3.05;1.45;;;24.50;87.00;;;;;;6215110;23;20008;-58
2022/05/19 00:56:16;;;;;;;2.63;1.88;;;25.10;87.40;;;;;;6215173;23;20028;-58
2022/05/19 00:58:49;;;;;;;2.28;1.55;;;24.50;57.10;;;;;;6215143;23;20314;-58
2022/05/19 01:01:16;;;;;;;2.65;1.38;;;;;;;;;;6215048;23;20424;-58
2022/05/19 01:03:57;;;;;;;1.80;1.30;;;25.30;54.00;;;;;;6214715;23;20391;-58
2022/05/19 01:06:25;;;;;;;2.42;1.58;;;25.20;87.00;;;;;;6214669;23;19997;-58
2022/05/19 01:09:04;;;;;;;2.17;1.42;;;24.90;87.10;;;;;;6215029;23;20051;-58
2022/05/19 01:11:31;;;;;;;3.00;1.48;;;25.30;87.50;;;;;;6215453;23;20009;-59
2022/05/19 01:13:57;;;;;;;3.33;2.00;;;25.00;87.30;;;;;;6214913;23;20052;-58
2022/05/19 01:16:23;;;;;;;2.58;1.67;;;24.90;87.20;;;;;;6214838;23;20004;-58
2022/05/19 01:18:50;;;;;;;4.95;2.03;;;25.10;87.10;;;;;;6214922;23;20012;-58
2022/05/19 01:21:19;;;;;;;2.38;1.75;;;25.20;53.80;;;;;;6214873;23;19996;-58
2022/05/19 01:23:53;;;;;;;2.65;1.63;;;24.90;87.30;;;;;;6214541;23;20459;-58
2022/05/19 01:26:47;;;;;;;1.70;1.50;;;25.10;53.50;;;;;;6214944;23;20080;-58
2022/05/19 01:29:15;;;;;;;2.05;1.70;;;25.10;87.10;;;;;;6214773;23;20000;-58
2022/05/19 01:32:21;;;;;;;4.47;2.10;;;24.60;86.90;;;;;;6224763;23;20007;-58
2022/05/19 01:34:46;;;;;;;2.63;1.90;;;25.40;87.70;;;;;;6214834;23;20004;-58
2022/05/19 01:37:12;;;;;;;2.13;1.70;;;;;;;;;;6214682;23;20063;-58
2022/05/19 01:39:38;;;;;;;1.75;1.45;;;25.10;87.10;;;;;;6214852;23;20000;-58
2022/05/19 01:42:28;;;;;;;4.60;1.80;;;25.40;58.80;;;;;;6214701;23;20367;-58
2022/05/19 01:45:18;;;;;;;2.30;1.83;;;24.90;83.20;;;;;;6214820;23;20067;-58
2022/05/19 01:48:06;;;;;;;2.17;1.85;;;25.10;82.30;;;;;;6214861;23;20004;-58
2022/05/19 01:51:02;;;;;;;3.40;1.83;;;25.40;87.60;;;;;;6214968;23;20067;-58
2022/05/19 01:53:50;;;;;;;2.55;1.88;;;25.50;87.80;;;;;;6214364;23;20007;-58
2022/05/19 01:56:53;;;;;;;4.88;1.90;;;25.10;53.60;;;;;;6214316;23;20362;-58
2022/05/19 01:59:28;;;;;;;2.58;1.80;;;25.10;54.00;;;;;;6213484;23;20013;-58
2022/05/19 02:02:24;;;;;;;3.33;2.03;;;25.20;87.50;;;;;;6214561;23;20084;-58
2022/05/19 02:04:56;;;;;;;2.58;1.80;;;25.10;54.00;;;;;;6212599;23;20440;-58
2022/05/19 02:07:23;;;;;;;2.45;2.25;;;25.10;87.50;;;;;;6213347;23;19999;-58
2022/05/19 02:09:56;;;;;;;2.28;1.60;;;25.20;87.50;;;;;;6213087;23;20428;-58
2022/05/19 02:12:22;;;;;;;3.88;1.80;;;25.10;66.00;;;;;;6213371;23;20320;-58
2022/05/19 02:14:56;;;;;;;1.85;1.65;;;25.30;77.20;;;;;;6213369;23;20087;-58
2022/05/19 02:17:25;;;;;;;3.08;1.70;;;24.70;77.00;;;;;;6222954;23;20012;-58
2022/05/19 02:19:55;;;;;;;3.67;1.55;;;24.90;87.40;;;;;;6212990;23;19993;-58
2022/05/19 02:22:25;;;;;;;2.30;2.00;;;24.90;87.40;;;;;;6213178;23;20079;-58
2022/05/19 02:24:57;;;;;;;2.80;2.07;;;25.10;87.30;;;;;;6213276;23;20008;-58
2022/05/19 02:27:33;;;;;;;4.80;2.42;;;24.70;87.20;;;;;;6213269;23;20083;-58
2022/05/19 02:30:05;;;;;;;3.03;1.90;;;25.10;87.80;;;;;;6212867;23;19997;-59
2022/05/19 02:32:30;;;;;;;2.30;1.77;;;25.20;88.00;;;;;;6212730;23;20005;-58
2022/05/19 02:34:56;;;;;;;2.45;1.55;;;25.10;88.10;;;;;;6213180;23;20484;-58
2022/05/19 02:37:22;;;;;;;2.17;1.80;;;25.10;71.40;;;;;;6212877;23;20015;-58
2022/05/19 02:39:48;;;;;;;2.47;1.45;;;;;;;;;;6222836;23;20005;-58
2022/05/19 02:42:14;;;;;;;2.95;1.67;;;24.90;85.70;;;;;;6213794;23;20001;-58
2022/05/19 02:44:40;;;;;;;2.58;1.60;;;;;;;;;;6188165;23;20376;-58
2022/05/19 02:47:06;;;;;;;3.03;1.75;;;24.90;88.00;;;;;;6214174;23;20480;-58
2022/05/19 02:49:32;;;;;;;3.58;1.77;;;25.00;73.00;;;;;;6214038;23;20075;-58
2022/05/19 02:51:57;;;;;;;3.55;1.40;;;25.00;63.30;;;;;;6214566;23;19997;-58
2022/05/19 02:54:23;;;;;;;1.52;1.35;;;25.30;88.40;;;;;;6214541;23;19996;-58
2022/05/19 02:56:49;;;;;;;4.30;1.58;;;25.00;88.30;;;;;;6214473;23;20044;-58
2022/05/19 02:59:15;;;;;;;2.33;1.25;;;25.30;88.20;;;;;;6224183;23;20055;-58
2022/05/19 03:01:41;;;;;;;1.52;1.25;;;25.10;88.10;;;;;;6214741;23;20036;-58
2022/05/19 03:04:07;;;;;;;2.00;1.30;;;24.80;87.90;;;;;;6157307;23;1343929;-58
2022/05/19 03:06:33;;;;;;;2.40;1.23;;;25.10;88.30;;;;;;6215843;23;20242;-58
2022/05/19 03:08:58;;;;;;;2.22;1.45;;;24.90;88.00;;;;;;6216164;23;20004;-59
2022/05/19 03:11:24;;;;;;;2.05;1.08;;;24.80;88.20;;;;;;6216079;23;20015;-59
2022/05/19 03:13:50;;;;;;;3.03;1.10;;;;;;;;;;6216084;23;19996;-58
2022/05/19 03:16:15;;;;;;;2.15;1.27;;;24.80;58.60;;;;;;6216024;23;20376;-58
2022/05/19 03:18:41;;;;;;;2.40;1.20;;;;;;;;;;6215928;23;20013;-59
2022/05/19 03:21:07;;;;;;;2.72;1.33;;;;;;;;;;6215707;23;20005;-59
2022/05/19 03:23:34;;;;;;;1.23;1.02;;;;;;;;;;6216020;23;20008;-58
2022/05/19 03:26:00;;;;;;;1.50;1.23;;;;;;;;;;6215989;23;19997;-58
2022/05/19 03:28:25;;;;;;;2.47;1.30;;;24.90;54.40;;;;;;6215568;23;20454;-58
2022/05/19 03:30:51;;;;;;;1.35;1.10;;;24.70;88.30;;;;;;6215939;23;20000;-58
2022/05/19 03:33:17;;;;;;;1.40;1.17;;;25.00;88.40;;;;;;6215967;23;20490;-58
2022/05/19 03:35:43;;;;;;;2.00;1.08;;;25.00;88.20;;;;;;6215831;23;19993;-58
2022/05/19 03:38:10;;;;;;;2.38;1.10;;;;;;;;;;6215434;23;20456;-58
2022/05/19 03:40:36;;;;;;;2.58;1.10;;;;;;;;;;6215528;23;20012;-58
2022/05/19 03:43:02;;;;;;;2.85;1.23;;;;;;;;;;6215770;23;19992;-58
2022/05/19 03:45:28;;;;;;;1.23;1.13;;;;;;;;;;6215375;23;20436;-59
2022/05/19 03:47:54;;;;;;;1.27;1.05;;;;;;;;;;6215719;23;20391;-58
2022/05/19 03:50:20;;;;;;;1.77;1.23;;;;;;;;;;6215719;23;20040;-58
2022/05/19 03:52:46;;;;;;;2.28;1.00;;;;;;;;;;6215152;23;20020;-58
2022/05/19 03:55:14;;;;;;;1.65;1.15;;;24.90;54.70;;;;;;6215589;23;20450;-58
2022/05/19 03:57:40;;;;;;;4.03;1.23;;;;;;;;;;6215610;23;20013;-58
2022/05/19 04:00:09;;;;;;;1.35;1.15;;;24.90;88.60;;;;;;6215756;23;20369;-59
2022/05/19 04:02:34;;;;;;;2.00;1.27;;;25.00;89.00;;;;;;6215447;23;20012;-59
2022/05/19 04:05:00;;;;;;;1.85;1.30;;;24.70;88.60;;;;;;6215121;23;20336;-58
2022/05/19 04:07:26;;;;;;;1.60;1.23;;;24.90;88.70;;;;;;6215537;23;20003;-58
2022/05/19 04:09:52;;;;;;;1.45;1.10;;;25.00;67.30;;;;;;6215504;23;20428;-58
2022/05/19 04:12:21;;;;;;;2.95;1.10;;;24.70;65.20;;;;;;6215219;23;20502;-59
2022/05/19 04:14:47;;;;;;;2.13;1.03;;;25.30;89.30;;;;;;6215196;23;20428;-59
2022/05/19 04:17:13;;;;;;;2.80;1.20;;;24.40;88.30;;;;;;6215119;23;20295;-58
2022/05/19 04:19:39;;;;;;;3.75;1.20;;;24.70;88.60;;;;;;6215440;23;20051;-59
2022/05/19 04:22:04;;;;;;;2.33;1.45;;;24.70;88.80;;;;;;6215455;23;20056;-59
2022/05/19 04:24:30;;;;;;;1.85;1.30;;;24.40;88.40;;;;;;6215441;23;20009;-58
2022/05/19 04:26:56;;;;;;;2.40;1.27;;;25.10;87.20;;;;;;6215332;23;20080;-59
2022/05/19 04:29:22;;;;;;;2.50;1.30;;;25.00;67.40;;;;;;6215050;23;20000;-59
2022/05/19 04:31:48;;;;;;;1.38;1.05;;;;;;;;;;6214889;23;20058;-59
2022/05/19 04:34:14;;;;;;;2.33;1.20;;;;;;;;;;6215306;23;20008;-59
2022/05/19 04:36:40;;;;;;;1.63;1.40;;;24.90;54.80;;;;;;6215234;23;20470;-49
2022/05/19 04:39:06;;;;;;;1.75;1.15;;;;;;;;;;6215167;23;20004;-52
2022/05/19 04:41:31;;;;;;;3.35;1.40;;;;;;;;;;6215192;23;20115;-50
2022/05/19 04:43:58;;;;;;;1.25;1.15;;;;;;;;;;6215136;23;20001;-50
2022/05/19 04:46:23;;;;;;;2.42;1.40;;;;;;;;;;6214910;23;19996;-53
2022/05/19 04:48:50;;;;;;;1.50;1.20;;;;;;;;;;6214816;23;20009;-51
2022/05/19 04:51:16;;;;;;;2.67;1.33;;;;;;;;;;6215210;23;20036;-49
2022/05/19 04:53:41;;;;;;;1.48;1.17;;;25.00;88.80;;;;;;6215168;23;20031;-49
2022/05/19 04:56:07;;;;;;;1.73;1.10;;;24.80;88.90;;;;;;6224935;23;20458;-52
2022/05/19 04:58:33;;;;;;;1.92;1.13;;;;;;;;;;6215086;23;20432;-49
2022/05/19 05:00:58;;;;;;;1.98;1.38;;;24.70;88.60;;;;;;6215013;23;20008;-50
2022/05/19 05:03:24;;;;;;;2.35;1.20;;;24.70;88.50;;;;;;6214686;23;20535;-49
2022/05/19 05:05:50;;;;;;;1.83;1.17;;;24.60;70.00;;;;;;6214422;23;20003;-49
2022/05/19 05:08:16;;;;;;;1.20;1.00;;;;;;;;;;6215000;23;20001;-50
2022/05/19 05:10:42;;;;;;;1.42;1.30;;;;;;;;;;6215038;23;19997;-50
2022/05/19 05:13:09;;;;;;;2.50;1.40;;;24.80;55.10;;;;;;6214681;23;20009;-50
2022/05/19 05:15:35;;;;;;;2.40;1.40;;;;;;;;;;6214954;23;20062;-49
2022/05/19 05:18:02;;;;;;;2.78;1.20;;;;;;;;;;6214738;23;20012;-50
2022/05/19 05:20:27;;;;;;;2.50;1.40;;;24.70;55.10;;;;;;6214490;23;19996;-49
2022/05/19 05:22:53;;;;;;;3.05;0.98;;;25.00;88.80;;;;;;6214805;23;20136;-49
2022/05/19 05:25:18;;;;;;;1.48;0.93;;;24.90;89.10;;;;;;6214724;23;19997;-50
2022/05/19 05:27:44;;;;;;;2.20;1.08;;;24.90;89.30;;;;;;6214833;23;20082;-50
2022/05/19 05:30:11;;;;;;;2.35;1.35;;;24.60;68.30;;;;;;6214771;23;20332;-48
2022/05/19 05:32:37;;;;;;;1.75;1.27;;;;;;;;;;6214510;23;20071;-58
2022/05/19 05:35:05;;;;;;;1.73;1.23;;;24.60;89.00;;;;;;6214369;23;20013;-59
2022/05/19 05:37:30;;;;;;;1.10;1.00;;;24.90;89.30;;;;;;6224366;23;20501;-58
2022/05/19 05:39:56;;;;;;;1.98;1.77;;;24.70;89.10;;;;;;6214701;23;20020;-59
2022/05/19 05:42:21;;;;;;;1.75;1.15;;;24.80;60.70;;;;;;6214762;23;20346;-58
2022/05/19 05:44:48;;;;;;;3.70;1.40;;;24.80;89.40;;;;;;6214383;23;20393;-58
2022/05/19 05:47:14;;;;;;;1.48;1.38;;;24.80;88.80;;;;;;6214267;23;20028;-58
2022/05/19 05:49:40;;;;;;;1.98;1.38;;;;;;;;;;6214536;23;20004;-58
2022/05/19 05:52:06;;;;;;;2.58;1.20;;;;;;;;;;6214626;23;20000;-58
2022/05/19 05:54:32;;;;;;;1.38;1.27;;;24.90;66.90;;;;;;6214142;23;20023;-59
2022/05/19 05:56:58;;;;;;;1.70;1.02;;;;;;;;;;6214563;23;20004;-58
2022/05/19 05:59:24;;;;;;;2.25;1.30;;;;;;;;;;6214556;23;20008;-58
2022/05/19 06:01:50;;;;;;;2.45;1.52;;;24.50;72.40;;;;;;6214540;23;20023;-59
2022/05/19 06:04:16;;;;;;;1.70;1.45;;;24.70;62.90;;;;;;6214162;23;20068;-58
2022/05/19 06:06:45;;;;;;;1.98;1.33;;;24.80;70.40;;;;;;6214694;23;20047;-59
2022/05/19 06:09:12;;;;;;;1.70;1.30;;;24.70;89.10;;;;;;6214678;23;20336;-60
2022/05/19 06:11:38;;;;;;;1.30;1.20;;;;;;;;;;6214210;23;20056;-60
2022/05/19 06:14:04;;;;;;;3.38;1.60;;;24.90;80.10;;;;;;6214362;23;20076;-60
2022/05/19 06:16:30;;;;;;;3.75;1.73;;;;;;;;;;6214824;23;20455;-59
2022/05/19 06:18:56;;;;;;;1.52;1.42;;;24.80;77.20;;;;;;6216160;23;20391;-60
2022/05/19 06:21:22;;;;;;;4.82;1.98;;;;;;;;;;6216375;23;20082;-59
2022/05/19 06:23:48;;;;;;;2.83;1.42;;;25.10;71.10;;;;;;6216540;23;20079;-59
2022/05/19 06:26:14;;;;;;;2.50;1.30;;;;;;;;;;6216229;23;20001;-59
2022/05/19 06:28:40;;;;;;;3.47;1.60;;;;;;;;;;6216325;23;20088;-59
2022/05/19 06:31:06;;;;;;;7.25;1.58;;;;;;;;;;6216327;23;20024;-59
2022/05/19 06:33:34;;;;;;;4.45;1.70;;;;;;;;;;6216300;23;20004;-59
2022/05/19 06:35:59;;;;;;;3.20;1.75;;;;;;;;;;6216047;23;19997;-59
2022/05/19 06:38:25;;;;;;;1.23;1.13;;;24.60;84.50;;;;;;6215834;23;20020;-59
2022/05/19 06:40:51;;;;;;;4.63;1.58;;;24.70;89.30;;;;;;6216379;23;20055;-59
2022/05/19 06:43:19;;;;;;;10.02;1.75;;;25.10;89.80;;;;;;6216345;23;20001;-58
2022/05/19 06:45:44;;;;;;;10.68;1.73;;;24.80;83.90;;;;;;6216223;23;20023;-58
2022/05/19 06:48:11;;;;;;;5.07;1.63;;;24.70;89.90;;;;;;6215755;23;20443;-59
2022/05/19 06:50:36;;;;;;;2.63;1.77;;;24.70;89.80;;;;;;6216315;23;20320;-59
2022/05/19 06:53:03;;;;;;;3.35;1.67;;;24.70;89.30;;;;;;6215892;23;19997;-59
2022/05/19 06:55:31;;;;;;;5.03;1.60;;;24.70;89.70;;;;;;6189292;23;20001;-59
2022/05/19 06:57:57;;;;;;;4.20;1.52;;;25.10;89.90;;;;;;6215919;23;20336;-58
2022/05/19 07:00:27;;;;;;;3.20;1.40;;;25.20;89.80;;;;;;6216105;23;20323;-59
2022/05/19 07:02:57;;;;;;;5.20;1.67;;;25.10;89.90;;;;;;6216002;23;20004;-59
2022/05/19 07:05:26;;;;;;;1.48;1.20;;;24.50;89.50;;;;;;6215801;23;20444;-59
2022/05/19 07:07:52;;;;;;;5.05;1.40;;;;;;;;;;6216085;23;20384;-59
2022/05/19 07:10:21;;;;;;;3.35;1.73;;;24.50;61.10;;;;;;6216024;23;20088;-59
2022/05/19 07:12:46;;;;;;;1.92;1.65;;;24.70;90.40;;;;;;6215956;23;19992;-59
2022/05/19 07:15:14;;;;;;;5.80;1.92;;;25.00;90.60;;;;;;6215623;23;19997;-59
2022/05/19 07:17:40;;;;;;;2.58;1.67;;;24.90;90.60;;;;;;6215875;23;20327;-59
2022/05/19 07:22:51;;;;;;;4.45;1.88;;;24.90;90.40;;;;;;6225922;23;20011;-59
2022/05/19 07:25:54;;;;;;;2.92;1.77;;;25.20;90.40;;;;;;6215881;23;20008;-59
2022/05/19 07:28:21;;;;;;;5.10;1.88;;;24.60;90.30;;;;;;6215409;23;20470;-60
2022/05/19 07:30:47;;;;;;;3.83;1.92;;;24.80;90.30;;;;;;6215834;23;20316;-60
2022/05/19 07:33:14;;;;;;;5.00;1.80;;;24.90;90.40;;;;;;6215589;23;19997;-60
2022/05/19 07:35:42;;;;;;;4.10;1.80;;;24.90;90.30;;;;;;6215764;23;20036;-60
2022/05/19 07:38:08;;;;;;;4.47;1.77;;;;;;;;;;6215279;23;20488;-60
2022/05/19 07:40:34;;;;;;;2.15;1.88;;;;;;;;;;6215791;23;20004;-60
2022/05/19 07:45:44;;;;;;;2.45;1.95;;;25.20;90.30;;;;;;6225539;23;20008;-60
2022/05/19 07:48:10;;;;;;;2.97;1.38;;;25.10;86.10;;;;;;6215806;23;20000;-59
2022/05/19 07:50:36;;;;;;;3.15;1.45;;;;;;;;;;6215303;23;20001;-60
2022/05/19 07:53:02;;;;;;;4.13;1.90;;;25.00;59.30;;;;;;6215686;23;20380;-60
2022/05/19 07:55:28;;;;;;;3.42;1.40;;;;;;;;;;6215606;23;19996;-60
2022/05/19 07:57:54;;;;;;;3.47;1.80;;;;;;;;;;6215275;23;20066;-60
2022/05/19 08:00:23;;;;;;;3.47;1.60;;;24.90;57.00;;;;;;6215602;23;20080;-60
2022/05/19 08:02:49;;;;;;;1.92;1.58;;;24.40;64.40;;;;;;6215092;23;20004;-60
2022/05/19 08:05:15;;;;;;;4.82;2.03;;;25.10;90.20;;;;;;6215220;23;20012;-60
2022/05/19 08:07:41;;;;;;;2.25;1.80;;;;;;;;;;6215479;23;20005;-60
2022/05/19 08:10:25;;;;;;;4.55;1.80;;;25.00;90.20;;;;;;6215495;23;19996;-60
2022/05/19 08:15:43;;;;;;;2.13;1.52;;;25.10;64.30;;;;;;6225390;23;20012;-60
2022/05/19 08:18:11;;;;;;;2.00;1.63;;;25.20;90.20;;;;;;6215022;23;20004;-60
2022/05/19 08:20:40;;;;;;;1.98;1.52;;;24.90;90.20;;;;;;6215414;23;20053;-61
2022/05/19 08:23:10;;;;;;;2.30;1.38;;;24.80;73.00;;;;;;6215479;23;20071;-60
2022/05/19 08:25:36;;;;;;;3.90;1.55;;;24.90;90.20;;;;;;6215463;23;19996;-60
2022/05/19 08:28:02;;;;;;;2.92;1.90;;;24.40;63.20;;;;;;6214820;23;20011;-60
2022/05/19 08:30:28;;;;;;;2.33;1.60;;;;;;;;;;6214983;23;20003;-60
2022/05/19 08:32:54;;;;;;;3.63;1.65;;;25.00;57.00;;;;;;6215243;23;20020;-60
2022/05/19 08:35:20;;;;;;;1.48;1.08;;;25.00;57.00;;;;;;6215100;23;20424;-60
2022/05/19 08:37:47;;;;;;;3.05;1.90;;;25.30;90.30;;;;;;6215209;23;20009;-61
2022/05/19 08:40:13;;;;;;;3.33;1.40;;;25.10;90.20;;;;;;6214893;23;19993;-58
2022/05/19 08:42:45;;;;;;;2.45;1.50;;;25.10;57.10;;;;;;6215179;23;20004;-59
2022/05/19 08:45:20;;;;;;;2.70;1.55;;;24.90;90.20;;;;;;6214874;23;19993;-58
2022/05/19 09:02:09;;;;;;;1.98;1.50;;;26.50;57.80;;;;;;6224624;23;20052;-46
2022/05/19 09:05:03;;;;;;;1.55;1.20;;;25.40;56.80;;;;;;6214539;23;20016;-46
2022/05/19 09:10:49;;;;;;;6.57;2.08;;;25.70;90.40;;;;;;6214868;23;20451;-46
2022/05/19 09:13:33;;;;;;;4.43;2.20;;;25.60;90.60;;;;;;6214699;23;20448;-56
2022/05/19 09:16:05;;;;;;;4.82;1.70;;;25.80;90.60;;;;;;6214885;23;20000;-55
2022/05/19 09:18:36;;;;;;;2.30;1.60;;;25.50;57.60;;;;;;6214810;23;20031;-55
2022/05/19 09:21:03;;;;;;;2.65;1.63;;;;;;;;;;6214831;23;20007;-55
2022/05/19 09:23:29;;;;;;;1.92;1.45;;;25.40;90.30;;;;;;6214859;23;20004;-55
2022/05/19 09:29:09;;;;;;;1.67;1.40;;;25.60;90.30;;;;;;6224618;23;20064;-53
2022/05/19 09:31:47;;;;;;;2.42;1.45;;;25.50;90.30;;;;;;6214625;23;20470;-56
2022/05/19 09:34:14;;;;;;;1.55;1.33;;;25.60;90.20;;;;;;6214768;23;20011;-56
2022/05/19 09:36:54;;;;;;;3.45;1.50;;;25.60;56.90;;;;;;6214756;23;19993;-55
2022/05/19 09:39:20;;;;;;;2.05;1.48;;;;;;;;;;6214453;23;20001;-56
2022/05/19 09:41:51;;;;;;;2.88;1.60;;;25.30;90.10;;;;;;6214335;23;20012;-56
2022/05/19 09:44:32;;;;;;;3.28;1.60;;;25.90;90.20;;;;;;6214717;23;20028;-57
2022/05/19 09:46:59;;;;;;;2.97;1.20;;;25.80;90.10;;;;;;6214725;23;20020;-57
2022/05/19 09:49:24;;;;;;;2.08;1.52;;;25.50;90.20;;;;;;6214778;23;20012;-47
2022/05/19 09:51:51;;;;;;;3.25;1.60;;;25.50;85.60;;;;;;6216351;23;20004;-47
2022/05/19 09:54:17;;;;;;;3.75;1.58;;;25.60;90.20;;;;;;6216352;23;20000;-47
2022/05/19 09:57:09;;;;;;;2.88;1.20;;;26.00;90.30;;;;;;6216742;23;20009;-47
2022/05/19 09:59:43;;;;;;;1.70;1.30;;;25.50;90.10;;;;;;6216762;23;20040;-46
2022/05/19 10:02:24;;;;;;;3.15;1.38;;;26.00;90.30;;;;;;6216559;23;19997;-46
2022/05/19 10:04:57;;;;;;;3.22;1.10;;;26.00;56.70;;;;;;6216182;23;20083;-46
2022/05/19 10:07:24;;;;;;;2.47;1.60;;;25.90;57.00;;;;;;6216738;23;20019;-47
2022/05/19 10:09:58;;;;;;;2.90;1.58;;;26.10;90.40;;;;;;6216574;23;20043;-46
2022/05/19 10:12:29;;;;;;;4.72;1.90;;;25.80;90.20;;;;;;6216192;23;19992;-47
2022/05/19 10:15:13;;;;;;;5.88;1.73;;;25.90;90.30;;;;;;6216173;23;20001;-47
2022/05/19 10:18:04;;;;;;;2.47;1.60;;;26.10;64.40;;;;;;6215827;23;20004;-47
2022/05/19 10:20:34;;;;;;;;;;;25.90;57.00;;;;;;6216858;23;20005;-48
2022/05/19 10:23:00;;;;;;;3.25;1.55;;;;;;;;;;6215918;23;19899;-48
2022/05/19 10:25:40;;;;;;;3.55;1.38;;;25.90;56.40;;;;;;6216079;23;20066;-47
2022/05/19 10:31:24;;;;;;;3.50;1.63;;;26.20;83.70;;;;;;6226214;23;20084;-49
2022/05/19 10:34:20;;;;;;;3.72;1.70;;;25.90;56.40;;;;;;6226180;23;20075;-49
2022/05/19 10:37:02;;;;;;;4.82;1.73;;;25.90;86.40;;;;;;6226038;23;20080;-49
2022/05/19 10:39:57;;;;;;;1.52;1.42;;;25.70;56.30;;;;;;6226350;23;20342;-47
2022/05/19 10:43:00;;;;;;;3.33;1.50;;;25.90;90.20;;;;;;6190501;23;20008;-47
2022/05/19 10:45:41;;;;;;;3.88;1.77;;;26.00;61.80;;;;;;6154564;23;20005;-47
2022/05/19 10:48:12;;;;;;;6.70;2.03;;;25.80;90.30;;;;;;6216117;23;20000;-46
2022/05/19 10:51:04;;;;;;;1.92;1.27;;;25.90;75.90;;;;;;6215832;23;20000;-46
2022/05/19 10:53:54;;;;;;;2.50;1.45;;;25.80;90.30;;;;;;6216077;23;19996;-48
2022/05/19 10:56:32;;;;;;;1.67;1.50;;;25.80;56.60;;;;;;6216097;23;20000;-48
2022/05/19 10:58:58;;;;;;;1.55;1.42;;;;;;;;;;6215750;23;20009;-46
2022/05/19 11:01:56;;;;;;;4.03;1.65;;;25.70;59.80;;;;;;6216010;23;20008;-46
2022/05/19 11:04:51;;;;;;;2.58;1.75;;;25.90;57.20;;;;;;6215721;23;20019;-47
2022/05/19 11:07:29;;;;;;;2.40;1.80;;;25.80;90.50;;;;;;6215731;23;20032;-46
2022/05/19 11:10:04;;;;;;;2.55;1.52;;;25.90;90.50;;;;;;6215848;23;20004;-46
2022/05/19 11:13:00;;;;;;;1.95;1.45;;;25.70;56.80;;;;;;6216142;23;20024;-45
2022/05/19 11:15:44;;;;;;;2.55;1.73;;;25.90;71.70;;;;;;6216085;23;20007;-47
2022/05/19 11:18:33;;;;;;;1.88;1.48;;;25.70;56.70;;;;;;6215985;23;20016;-46
2022/05/19 11:21:23;;;;;;;2.57;1.30;;;25.10;90.40;;;;;;6216159;23;20024;-46
2022/05/19 11:23:58;;;;;;;;;;;25.70;57.40;;;;;;6216556;23;20036;-46
2022/05/19 11:26:32;;;;;;;3.20;1.50;;;25.70;57.40;;;;;;6216222;23;19927;-46
2022/05/19 11:28:58;;;;;;;3.58;1.48;;;;;;;;;;6215961;23;20031;-46
2022/05/19 11:31:47;;;;;;;3.03;1.60;;;25.60;56.80;;;;;;6215872;23;20417;-47
2022/05/19 11:34:32;;;;;;;2.28;1.63;;;25.60;89.60;;;;;;6215467;23;20008;-46
2022/05/19 11:37:07;;;;;;;1.88;1.38;;;25.60;56.80;;;;;;6215757;23;20088;-46
2022/05/19 11:39:42;;;;;;;5.18;1.80;;;25.80;90.70;;;;;;6215811;23;20016;-46
2022/05/19 11:42:29;;;;;;;3.53;1.98;;;25.40;88.80;;;;;;6215097;23;20421;-47
2022/05/19 11:44:56;;;;;;;2.78;1.63;;;25.90;90.70;;;;;;6215773;23;20033;-47
2022/05/19 11:55:51;;;;;;;3.55;1.85;;;25.10;90.70;;;;;;6215608;23;20043;-46
2022/05/19 11:58:27;;;;;;;5.03;1.60;;;25.60;90.70;;;;;;6214945;23;20008;-47
2022/05/19 12:01:21;;;;;;;2.10;1.63;;;25.50;57.70;;;;;;6215145;23;20024;-47
2022/05/19 12:04:19;;;;;;;5.32;1.55;;;25.10;90.60;;;;;;6203387;23;20012;-46
2022/05/19 12:06:53;;;;;;;5.50;1.83;;;25.10;90.50;;;;;;6198721;23;20161;-47
2022/05/19 12:09:28;;;;;;;4.95;2.10;;;25.50;90.80;;;;;;6214974;23;20444;-46
2022/05/19 12:12:01;;;;;;;10.25;2.15;;;25.40;84.30;;;;;;6215402;23;20001;-46
2022/05/19 12:14:33;;;;;;;5.65;1.98;;;25.50;90.90;;;;;;6214857;23;19997;-46
2022/05/19 12:16:59;;;;;;;7.22;2.08;;;25.70;90.90;;;;;;6215441;23;20005;-45
2022/05/19 12:19:51;;;;;;;7.13;2.28;;;25.50;91.00;;;;;;6215141;23;20327;-46
2022/05/19 12:22:17;;;;;;;4.85;2.05;;;25.50;90.90;;;;;;6215334;23;20075;-46
2022/05/19 12:25:00;;;;;;;7.13;2.20;;;25.30;62.90;;;;;;6214783;23;20356;-45
2022/05/19 12:27:40;;;;;;;4.47;1.98;;;25.10;59.00;;;;;;6215146;23;20041;-46
2022/05/19 12:33:02;;;;;;;5.05;2.10;;;25.30;57.40;;;;;;6224905;23;20510;-45
2022/05/19 12:35:31;;;;;;;3.83;1.83;;;24.90;71.50;;;;;;6215053;23;20020;-45
2022/05/19 12:38:03;;;;;;;4.82;1.80;;;25.10;90.90;;;;;;6215162;23;20015;-46
2022/05/19 12:40:49;;;;;;;6.43;1.63;;;25.50;91.10;;;;;;6215268;23;20000;-46
2022/05/19 12:43:20;;;;;;;4.82;1.70;;;25.60;91.20;;;;;;6213993;23;20356;-45
2022/05/19 12:45:49;;;;;;;10.15;1.98;;;25.30;58.20;;;;;;6215270;23;20079;-46
2022/05/19 12:48:14;;;;;;;3.33;1.60;;;25.40;91.10;;;;;;6215051;23;20008;-45
2022/05/19 12:50:40;;;;;;;3.50;1.55;;;25.30;91.10;;;;;;6215153;23;20004;-46
2022/05/19 12:53:28;;;;;;;4.75;1.70;;;25.10;78.80;;;;;;6215174;23;19997;-45
2022/05/19 12:55:56;;;;;;;3.25;2.00;;;25.40;58.40;;;;;;6213746;23;20032;-46
2022/05/19 12:58:34;;;;;;;3.28;2.00;;;25.50;59.60;;;;;;6214350;23;20071;-46
2022/05/19 13:01:21;;;;;;;3.92;2.20;;;25.30;58.10;;;;;;6214320;23;20028;-45
2022/05/19 13:04:11;;;;;;;5.82;2.17;;;25.30;57.80;;;;;;6214465;23;20020;-45
2022/05/19 13:06:49;;;;;;;4.38;2.17;;;25.30;57.90;;;;;;6215129;23;20000;-45
2022/05/19 13:09:21;;;;;;;5.95;2.10;;;25.60;91.10;;;;;;6215049;23;20004;-45
2022/05/19 13:11:53;;;;;;;3.90;2.22;;;25.20;90.90;;;;;;6215076;23;20032;-45
2022/05/19 13:14:25;;;;;;;4.10;2.00;;;25.60;91.00;;;;;;6215036;23;20320;-45
2022/05/19 13:16:53;;;;;;;3.22;2.05;;;25.60;91.10;;;;;;6214858;23;20305;-46
2022/05/19 13:19:23;;;;;;;4.47;1.95;;;25.60;91.40;;;;;;6214603;23;20004;-46
2022/05/19 13:22:06;;;;;;;4.55;1.90;;;25.40;91.40;;;;;;6214949;23;20175;-45
2022/05/19 13:24:37;;;;;;;3.95;2.20;;;25.30;58.40;;;;;;6214896;23;20000;-46
2022/05/19 13:32:36;;;;;;;2.70;1.60;;;23.70;58.20;;;;;;6224688;23;20011;-45
2022/05/19 13:35:15;;;;;;;3.42;1.70;;;25.60;58.30;;;;;;6214410;23;20495;-46
2022/05/19 13:37:43;;;;;;;5.00;1.97;;;25.20;91.40;;;;;;6214724;23;20016;-45
2022/05/19 13:40:27;;;;;;;3.15;2.17;;;25.70;91.40;;;;;;6214707;23;20068;-45
2022/05/19 13:43:05;;;;;;;3.50;1.88;;;25.40;91.30;;;;;;6214725;23;20005;-46
2022/05/19 13:45:43;;;;;;;4.28;2.50;;;25.10;91.10;;;;;;6214792;23;20491;-45
2022/05/19 13:48:16;;;;;;;4.45;2.10;;;25.50;91.20;;;;;;6214814;23;20332;-46
2022/05/19 13:50:43;;;;;;;2.28;2.03;;;26.70;59.60;;;;;;6214752;23;20001;-46
2022/05/19 13:53:09;;;;;;;3.47;1.80;;;25.70;91.20;;;;;;6214727;23;20000;-46
2022/05/19 13:55:37;;;;;;;4.15;2.00;;;25.50;90.00;;;;;;6214697;23;20040;-46
2022/05/19 13:58:05;;;;;;;2.50;1.98;;;25.60;91.30;;;;;;6214604;23;20013;-47
2022/05/19 14:00:37;;;;;;;2.55;1.52;;;25.40;58.70;;;;;;6214327;23;20446;-48
2022/05/19 14:03:05;;;;;;;2.10;1.60;;;25.70;91.40;;;;;;6214419;23;19997;-46
2022/05/19 14:05:35;;;;;;;2.92;1.80;;;25.50;91.30;;;;;;6214457;23;20498;-45
2022/05/19 14:08:11;;;;;;;5.22;1.73;;;25.60;91.40;;;;;;6214785;23;19997;-45
2022/05/19 14:10:41;;;;;;;2.60;2.10;;;25.70;91.50;;;;;;6214785;23;20004;-46
2022/05/19 14:13:07;;;;;;;3.22;1.83;;;25.30;91.30;;;;;;6214656;23;20001;-46
2022/05/19 14:15:35;;;;;;;3.20;2.08;;;25.60;91.50;;;;;;6214565;23;20451;-45